Time;durP1;ratioP1;P1;durP2;ratioP2;P2;SDS_P1;SDS_P2;PMS_P1;PMS_P2;Temp;Humidity;BMP_temperature;BMP_pressure;BME280_temperature;BME280_humidity;BME280_pressure;Samples;Min_cycle;Max_cycle;Signal;HPM_P1;HPM_P2
2022/09/10 00:00:25;;;;;;;0.6;0.5;;;;;;;;;;;;;
2022/09/10 00:02:55;;;;;;;0.8;0.7;;;;;;;;;;;;;
2022/09/10 00:05:22;;;;;;;0.9;0.5;;;;;;;;;;;;;
2022/09/10 00:07:48;;;;;;;1.4;0.7;;;;;;;;;;;;;
2022/09/10 00:10:13;;;;;;;0.5;0.5;;;;;;;;;;;;;
2022/09/10 00:12:38;;;;;;;1.1;0.7;;;;;;;;;;;;;
2022/09/10 00:15:04;;;;;;;1.2;0.7;;;;;;;;;;;;;
2022/09/10 00:17:30;;;;;;;0.5;0.5;;;;;;;;;;;;;
2022/09/10 00:19:56;;;;;;;0.7;0.7;;;;;;;;;;;;;
2022/09/10 00:22:21;;;;;;;1;0.6;;;;;;;;;;;;;
2022/09/10 00:24:45;;;;;;;1.6;0.5;;;;;;;;;;;;;
2022/09/10 00:27:10;;;;;;;1.7;1;;;;;;;;;;;;;
2022/09/10 00:29:37;;;;;;;1.4;0.8;;;;;;;;;;;;;
2022/09/10 00:32:04;;;;;;;0.8;0.8;;;;;;;;;;;;;
2022/09/10 00:34:28;;;;;;;1.9;0.8;;;;;;;;;;;;;
2022/09/10 00:36:54;;;;;;;1.8;0.8;;;;;;;;;;;;;
2022/09/10 00:39:19;;;;;;;0.9;0.8;;;;;;;;;;;;;
2022/09/10 00:41:45;;;;;;;1;0.9;;;;;;;;;;;;;
2022/09/10 00:44:10;;;;;;;1.8;0.8;;;;;;;;;;;;;
2022/09/10 00:46:44;;;;;;;1.5;0.8;;;;;;;;;;;;;
2022/09/10 00:49:09;;;;;;;3.3;0.8;;;;;;;;;;;;;
2022/09/10 00:51:35;;;;;;;1;0.9;;;;;;;;;;;;;
2022/09/10 00:54:00;;;;;;;1;0.8;;;;;;;;;;;;;
2022/09/10 00:56:27;;;;;;;1;0.8;;;;;;;;;;;;;
2022/09/10 00:58:52;;;;;;;1.3;0.9;;;;;;;;;;;;;
2022/09/10 01:01:19;;;;;;;1.8;1.1;;;;;;;;;;;;;
2022/09/10 01:03:44;;;;;;;1;0.9;;;;;;;;;;;;;
2022/09/10 01:06:09;;;;;;;1.8;1;;;;;;;;;;;;;
2022/09/10 01:08:34;;;;;;;0.7;0.7;;;;;;;;;;;;;
2022/09/10 01:11:00;;;;;;;1.8;1;;;;;;;;;;;;;
2022/09/10 01:13:24;;;;;;;1;0.9;;;;;;;;;;;;;
2022/09/10 01:15:49;;;;;;;1.6;1.1;;;;;;;;;;;;;
2022/09/10 01:18:14;;;;;;;1.2;0.8;;;;;;;;;;;;;
2022/09/10 01:20:39;;;;;;;1.3;1;;;;;;;;;;;;;
2022/09/10 01:23:05;;;;;;;1.1;0.9;;;;;;;;;;;;;
2022/09/10 01:25:30;;;;;;;1;0.7;;;;;;;;;;;;;
2022/09/10 01:27:55;;;;;;;1.3;0.8;;;;;;;;;;;;;
2022/09/10 01:30:23;;;;;;;1.3;1;;;;;;;;;;;;;
2022/09/10 01:32:48;;;;;;;1.3;0.7;;;;;;;;;;;;;
2022/09/10 01:35:15;;;;;;;0.8;0.8;;;;;;;;;;;;;
2022/09/10 01:37:41;;;;;;;2.4;1;;;;;;;;;;;;;
2022/09/10 01:40:06;;;;;;;1.1;1;;;;;;;;;;;;;
2022/09/10 01:42:32;;;;;;;0.8;0.8;;;;;;;;;;;;;
2022/09/10 01:44:57;;;;;;;1.8;0.8;;;;;;;;;;;;;
2022/09/10 01:47:24;;;;;;;1;0.8;;;;;;;;;;;;;
2022/09/10 01:49:50;;;;;;;0.7;0.7;;;;;;;;;;;;;
2022/09/10 01:52:15;;;;;;;1.9;0.8;;;;;;;;;;;;;
2022/09/10 01:54:40;;;;;;;1;0.8;;;;;;;;;;;;;
2022/09/10 01:57:06;;;;;;;1.5;0.8;;;;;;;;;;;;;
2022/09/10 01:59:33;;;;;;;1;0.9;;;;;;;;;;;;;
2022/09/10 02:01:56;;;;;;;2.3;1.2;;;;;;;;;;;;;
2022/09/10 02:04:23;;;;;;;1.3;0.7;;;;;;;;;;;;;
2022/09/10 02:06:48;;;;;;;0.7;0.7;;;;;;;;;;;;;
2022/09/10 02:09:15;;;;;;;1.5;0.9;;;;;;;;;;;;;
2022/09/10 02:11:40;;;;;;;1.2;0.8;;;;;;;;;;;;;
2022/09/10 02:14:05;;;;;;;1.2;0.9;;;;;;;;;;;;;
2022/09/10 02:16:31;;;;;;;0.8;0.8;;;;;;;;;;;;;
2022/09/10 02:18:57;;;;;;;2.5;0.9;;;;;;;;;;;;;
2022/09/10 02:21:22;;;;;;;1;0.9;;;;;;;;;;;;;
2022/09/10 02:23:48;;;;;;;1.8;0.9;;;;;;;;;;;;;
2022/09/10 02:26:14;;;;;;;1.7;0.9;;;;;;;;;;;;;
2022/09/10 02:28:39;;;;;;;0.8;0.8;;;;;;;;;;;;;
2022/09/10 02:31:05;;;;;;;0.8;0.8;;;;;;;;;;;;;
2022/09/10 02:33:31;;;;;;;2.1;0.8;;;;;;;;;;;;;
2022/09/10 02:35:56;;;;;;;1;0.8;;;;;;;;;;;;;
2022/09/10 02:38:22;;;;;;;1.5;0.9;;;;;;;;;;;;;
2022/09/10 02:40:47;;;;;;;1.7;0.8;;;;;;;;;;;;;
2022/09/10 02:43:15;;;;;;;1.2;1.1;;;;;;;;;;;;;
2022/09/10 02:45:39;;;;;;;1.4;1.3;;;;;;;;;;;;;
2022/09/10 02:48:05;;;;;;;1.1;1;;;;;;;;;;;;;
2022/09/10 02:50:30;;;;;;;1.3;1;;;;;;;;;;;;;
2022/09/10 02:52:57;;;;;;;1.2;1;;;;;;;;;;;;;
2022/09/10 02:55:22;;;;;;;1.1;1;;;;;;;;;;;;;
2022/09/10 02:57:48;;;;;;;1.3;0.8;;;;;;;;;;;;;
2022/09/10 03:00:13;;;;;;;2.8;0.9;;;;;;;;;;;;;
2022/09/10 03:02:41;;;;;;;0.7;0.7;;;;;;;;;;;;;
2022/09/10 03:05:06;;;;;;;1.6;1.2;;;;;;;;;;;;;
2022/09/10 03:07:33;;;;;;;0.8;0.8;;;;;;;;;;;;;
2022/09/10 03:09:58;;;;;;;0.8;0.8;;;;;;;;;;;;;
2022/09/10 03:12:23;;;;;;;1.6;0.9;;;;;;;;;;;;;
2022/09/10 03:14:49;;;;;;;1.5;0.9;;;;;;;;;;;;;
2022/09/10 03:17:14;;;;;;;1.5;1;;;;;;;;;;;;;
2022/09/10 03:19:40;;;;;;;0.8;0.8;;;;;;;;;;;;;
2022/09/10 03:22:05;;;;;;;0.9;0.7;;;;;;;;;;;;;
2022/09/10 03:24:30;;;;;;;0.8;0.8;;;;;;;;;;;;;
2022/09/10 03:26:56;;;;;;;0.9;0.8;;;;;;;;;;;;;
2022/09/10 03:29:21;;;;;;;2.6;1.1;;;;;;;;;;;;;
2022/09/10 03:31:50;;;;;;;0.9;0.7;;;;;;;;;;;;;
2022/09/10 03:34:13;;;;;;;1;0.9;;;;;;;;;;;;;
2022/09/10 03:36:39;;;;;;;3.2;1;;;;;;;;;;;;;
2022/09/10 03:39:04;;;;;;;0.8;0.8;;;;;;;;;;;;;
2022/09/10 03:41:32;;;;;;;1;0.7;;;;;;;;;;;;;
2022/09/10 03:43:57;;;;;;;0.7;0.7;;;;;;;;;;;;;
2022/09/10 03:46:23;;;;;;;1.1;0.8;;;;;;;;;;;;;
2022/09/10 03:48:48;;;;;;;1.3;0.9;;;;;;;;;;;;;
2022/09/10 03:51:14;;;;;;;1;0.7;;;;;;;;;;;;;
2022/09/10 03:53:54;;;;;;;1.6;0.8;;;;;;;;;;;;;
2022/09/10 03:56:19;;;;;;;1.5;0.8;;;;;;;;;;;;;
2022/09/10 03:58:45;;;;;;;1.8;0.9;;;;;;;;;;;;;
2022/09/10 04:02:35;;;;;;;1.9;1.1;;;;;;;11.7;98.83301;937.5955;;;;
2022/09/10 04:18:11;;;;;;;0.7;0.7;;;;;;;11.5;99.45215;937.4316;;;;
2022/09/10 04:20:37;;;;;;;0.7;0.7;;;;;;;11.47;99.58301;937.4419;;;;
2022/09/10 04:23:05;;;;;;;1.7;0.8;;;;;;;11.36;100;937.4777;;;;
2022/09/10 04:25:30;;;;;;;2.2;0.9;;;;;;;11.41;100;937.4894;;;;
2022/09/10 04:28:00;;;;;;;0.6;0.6;;;;;;;11.45;99.26758;937.5087;;;;
2022/09/10 04:30:25;;;;;;;1.1;0.7;;;;;;;11.37;99.43262;937.5336;;;;
2022/09/10 04:38:41;;;;;;;0.8;0.8;;;;;;;11.19;100;937.6072;;;;
2022/09/10 04:41:14;;;;;;;3.3;1.3;;;;;;;11.24;100;937.6182;;;;
2022/09/10 04:43:46;;;;;;;2.1;1;;;;;;;11.18;100;937.5848;;;;
2022/09/10 04:46:14;;;;;;;1.3;1.2;;;;;;;11.01;100;937.6337;;;;
2022/09/10 04:48:40;;;;;;;1.3;1;;;;;;;11.01;100;937.7014;;;;
2022/09/10 04:51:12;;;;;;;0.9;0.9;;;;;;;11.14;100;937.6611;;;;
2022/09/10 04:53:36;;;;;;;1.2;1;;;;;;;11.23;100;937.6939;;;;
2022/09/10 04:56:06;;;;;;;2.5;1;;;;;;;11.34;100;937.6139;;;;
2022/09/10 04:58:36;;;;;;;0.9;0.9;;;;;;;11.32;100;937.4998;;;;
2022/09/10 05:01:01;;;;;;;1.6;0.8;;;;;;;11.36;100;937.4705;;;;
2022/09/10 05:03:26;;;;;;;1.1;1;;;;;;;11.4;100;937.5106;;;;
2022/09/10 05:06:01;;;;;;;1;0.9;;;;;;;11.45;100;937.5828;;;;
2022/09/10 05:08:36;;;;;;;0.8;0.8;;;;;;;11.54;100;937.6471;;;;
2022/09/10 05:11:01;;;;;;;1.5;1;;;;;;;11.55;100;937.6408;;;;
2022/09/10 05:13:32;;;;;;;1;0.9;;;;;;;11.66;99.82129;937.6472;;;;
2022/09/10 05:16:04;;;;;;;1.6;1;;;;;;;11.83;99.19629;937.7026;;;;
2022/09/10 05:18:30;;;;;;;2.4;1.9;;;;;;;11.76;99.70703;937.7313;;;;
2022/09/10 05:20:59;;;;;;;1.2;1.1;;;;;;;11.88;99.99707;937.6844;;;;
2022/09/10 05:23:25;;;;;;;1.2;1.1;;;;;;;11.88;99.41309;937.7986;;;;
2022/09/10 05:25:55;;;;;;;1;0.9;;;;;;;11.95;99.53418;937.7709;;;;
2022/09/10 05:28:24;;;;;;;2;0.9;;;;;;;12.11;98.83594;937.8514;;;;
2022/09/10 05:30:49;;;;;;;1.7;1.3;;;;;;;12.11;97.98828;937.8873;;;;
2022/09/10 05:33:15;;;;;;;1.4;1.1;;;;;;;12.18;98.08301;937.8276;;;;
2022/09/10 05:35:40;;;;;;;2;1.8;;;;;;;12.2;97.8252;937.8245;;;;
2022/09/10 05:38:11;;;;;;;3.8;2.2;;;;;;;12.25;97.87012;937.7906;;;;
2022/09/10 05:40:42;;;;;;;3.1;2;;;;;;;12.24;97.69629;937.892;;;;
2022/09/10 05:43:12;;;;;;;4;2.3;;;;;;;12.22;98.04492;937.955;;;;
2022/09/10 05:45:37;;;;;;;2.7;1.7;;;;;;;12.22;97.42871;937.9478;;;;
2022/09/10 05:49:40;;;;;;;3.4;2.4;;;;;;;12.34;97.24805;937.9481;;;;
2022/09/10 05:51:50;;;;;;;2.7;1.7;;;;;;;12.31;97.76953;938.1213;;;;
2022/09/10 05:54:15;;;;;;;2.1;1.5;;;;;;;12.42;97.69043;938.1066;;;;
2022/09/10 05:56:43;;;;;;;1.6;1.5;;;;;;;12.57;97.62207;938.1716;;;;
2022/09/10 05:59:40;;;;;;;1.8;1.3;;;;;;;12.43;96.84668;938.2161;;;;
2022/09/10 06:02:27;;;;;;;1.3;1.2;;;;;;;12.6;97.35254;938.15;;;;
2022/09/10 06:04:59;;;;;;;2.1;1.7;;;;;;;12.61;97.27441;938.0709;;;;
2022/09/10 06:07:29;;;;;;;1.5;1.3;;;;;;;12.8;97.25977;938.0746;;;;
2022/09/10 06:09:54;;;;;;;3.4;1.1;;;;;;;13;96.32813;938.1117;;;;
2022/09/10 06:12:26;;;;;;;2.2;1.3;;;;;;;12.98;95.57813;938.039;;;;
2022/09/10 06:14:56;;;;;;;1.1;1;;;;;;;13.15;94.96094;937.9856;;;;
2022/09/10 06:17:25;;;;;;;1.1;0.8;;;;;;;13.23;95.18555;938.062;;;;
2022/09/10 06:19:55;;;;;;;2.7;1.4;;;;;;;13.27;95.89355;938.0292;;;;
2022/09/10 06:22:20;;;;;;;1.6;1.2;;;;;;;13.44;94.69043;938.0549;;;;
2022/09/10 06:24:54;;;;;;;2.8;1.1;;;;;;;13.67;94.79688;938.0634;;;;
2022/09/10 06:27:18;;;;;;;1.2;0.9;;;;;;;13.84;92.93555;938.0544;;;;
2022/09/10 06:32:28;;;;;;;1.1;0.8;;;;;;;14;90.7959;938.1209;;;;
2022/09/10 06:34:58;;;;;;;1.6;0.6;;;;;;;13.77;90.25391;938.1447;;;;
2022/09/10 06:37:23;;;;;;;1.7;0.5;;;;;;;13.72;91.37012;938.2408;;;;
2022/09/10 06:39:50;;;;;;;0.8;0.5;;;;;;;13.63;92.05273;938.3508;;;;
2022/09/10 06:42:15;;;;;;;0.8;0.7;;;;;;;13.54;92.95313;938.3826;;;;
2022/09/10 06:44:46;;;;;;;1.9;0.9;;;;;;;13.53;93.70996;938.405;;;;
2022/09/10 06:47:12;;;;;;;1;0.7;;;;;;;13.58;94.24805;938.3986;;;;
2022/09/10 06:49:41;;;;;;;1.4;0.9;;;;;;;13.5;94.06055;938.4235;;;;
2022/09/10 06:52:12;;;;;;;3.8;0.9;;;;;;;13.28;94.63184;938.3459;;;;
2022/09/10 06:54:42;;;;;;;3.5;1;;;;;;;13.53;94.7793;938.3258;;;;
2022/09/10 06:57:13;;;;;;;3.7;1.5;;;;;;;13.69;94.14746;938.3873;;;;
2022/09/10 06:59:38;;;;;;;11.6;2.5;;;;;;;13.83;94.07324;938.3745;;;;
2022/09/10 07:02:08;;;;;;;3.5;1.5;;;;;;;13.89;92.69238;938.2391;;;;
2022/09/10 07:04:33;;;;;;;3.5;1.5;;;;;;;13.92;91.95215;938.3198;;;;
2022/09/10 07:07:03;;;;;;;2.1;1.5;;;;;;;14.01;91.89063;938.3467;;;;
2022/09/10 07:09:28;;;;;;;2.2;1.3;;;;;;;14.06;91.6377;938.3787;;;;
2022/09/10 07:11:59;;;;;;;1.9;1.1;;;;;;;14.11;91.1748;938.3858;;;;
2022/09/10 07:14:28;;;;;;;3.2;1.4;;;;;;;14.21;91.82715;938.3934;;;;
2022/09/10 07:16:56;;;;;;;2.2;1.2;;;;;;;14.34;91.97266;938.4108;;;;
2022/09/10 07:19:49;;;;;;;1.1;1;;;;;;;14.38;91.26563;938.4402;;;;
2022/09/10 07:22:20;;;;;;;5.6;1.5;;;;;;;14.34;90.16211;938.5117;;;;
2022/09/10 07:24:49;;;;;;;5.5;1.9;;;;;;;14.46;90.6709;938.543;;;;
2022/09/10 07:27:13;;;;;;;6.1;1.8;;;;;;;14.55;89.90723;938.605;;;;
2022/09/10 07:29:41;;;;;;;3.5;1.3;;;;;;;14.43;88.21289;938.5244;;;;
2022/09/10 07:32:12;;;;;;;5;1.4;;;;;;;14.61;90.17188;938.5397;;;;
2022/09/10 07:34:37;;;;;;;3.6;1.1;;;;;;;14.93;88.7041;938.4717;;;;
2022/09/10 07:37:07;;;;;;;3.6;1;;;;;;;15.12;85.73242;938.5148;;;;
2022/09/10 07:39:32;;;;;;;5.4;1.1;;;;;;;15.66;85.9541;938.4888;;;;
2022/09/10 07:42:00;;;;;;;4.6;1.5;;;;;;;16.01;82.59961;938.4983;;;;
2022/09/10 07:44:26;;;;;;;25.9;14.1;;;;;;;16.17;80.02734;938.4228;;;;
2022/09/10 07:46:56;;;;;;;19.1;10.6;;;;;;;16.25;80.07715;938.5009;;;;
2022/09/10 07:49:21;;;;;;;19.1;11.3;;;;;;;16.38;81.19922;938.468;;;;
2022/09/10 07:51:46;;;;;;;19.2;10.7;;;;;;;16.37;79.86719;938.5469;;;;
2022/09/10 07:54:15;;;;;;;12.9;8;;;;;;;16.45;79.88184;938.5292;;;;
2022/09/10 07:56:39;;;;;;;15.1;8.8;;;;;;;16.21;79.22559;938.5131;;;;
2022/09/10 07:59:10;;;;;;;12.6;7.2;;;;;;;16.19;80.50684;938.5253;;;;
2022/09/10 08:01:45;;;;;;;11.7;6.4;;;;;;;16.36;82.00586;938.5173;;;;
2022/09/10 08:04:14;;;;;;;6.3;4.2;;;;;;;16.45;81.31738;938.543;;;;
2022/09/10 08:06:39;;;;;;;5.1;3.5;;;;;;;16.57;79.5332;938.5535;;;;
2022/09/10 08:09:08;;;;;;;3.1;1.6;;;;;;;16.85;76.63086;938.4171;;;;
2022/09/10 08:11:39;;;;;;;3.1;2.4;;;;;;;16.9;77.27637;938.5209;;;;
2022/09/10 08:14:12;;;;;;;7.7;4.6;;;;;;;17.06;79.22852;938.5541;;;;
2022/09/10 08:16:35;;;;;;;8.3;5.1;;;;;;;16.95;78.29395;938.541;;;;
2022/09/10 08:19:01;;;;;;;6;3.6;;;;;;;16.96;78.21289;938.4942;;;;
2022/09/10 08:21:25;;;;;;;3.9;2.6;;;;;;;16.9;78.62012;938.5023;;;;
2022/09/10 08:23:52;;;;;;;2.7;1.9;;;;;;;16.79;79.98047;938.5655;;;;
2022/09/10 08:26:17;;;;;;;2;1.5;;;;;;;16.75;80.95508;938.4937;;;;
2022/09/10 08:28:46;;;;;;;2.3;1.9;;;;;;;16.85;81.56641;938.4426;;;;
2022/09/10 08:31:11;;;;;;;2.1;1.9;;;;;;;16.88;76.69238;938.4744;;;;
2022/09/10 08:33:38;;;;;;;1.8;1.4;;;;;;;17.04;79.19043;938.5134;;;;
2022/09/10 08:36:04;;;;;;;2.8;2;;;;;;;16.94;80.33105;938.537;;;;
2022/09/10 08:38:32;;;;;;;3;2;;;;;;;17;77.73438;938.5588;;;;
2022/09/10 08:40:59;;;;;;;3.6;2.5;;;;;;;16.79;75.13574;938.5583;;;;
2022/09/10 08:43:24;;;;;;;3.5;2.3;;;;;;;16.83;77.96973;938.6208;;;;
2022/09/10 08:45:49;;;;;;;3.7;2.5;;;;;;;17.05;78.43945;938.679;;;;
2022/09/10 08:48:15;;;;;;;4.3;2.3;;;;;;;17.01;77.16797;938.7235;;;;
2022/09/10 08:50:44;;;;;;;4.5;2.3;;;;;;;16.99;78.86816;938.6642;;;;
2022/09/10 08:53:09;;;;;;;2.9;1.6;;;;;;;16.84;80.60254;938.8128;;;;
2022/09/10 08:55:38;;;;;;;2.7;1.4;;;;;;;16.89;81.13281;938.8965;;;;
2022/09/10 08:58:02;;;;;;;4.7;2.2;;;;;;;16.94;80.06543;938.8822;;;;
2022/09/10 09:00:27;;;;;;;2.5;1.8;;;;;;;16.96;77.74902;938.9117;;;;
2022/09/10 09:02:52;;;;;;;4;2.1;;;;;;;16.93;78.30078;939.032;;;;
2022/09/10 09:05:21;;;;;;;2;1.3;;;;;;;16.89;76.89258;938.9835;;;;
2022/09/10 09:07:47;;;;;;;2.1;1.6;;;;;;;16.69;76.75293;939.0726;;;;
2022/09/10 09:10:18;;;;;;;15.5;9.3;;;;;;;16.17;80.29395;939.1378;;;;
2022/09/10 09:12:44;;;;;;;15.2;10.1;;;;;;;16.17;81.64648;939.0912;;;;
2022/09/10 09:15:12;;;;;;;15.4;10.1;;;;;;;16.09;83.41211;939.1436;;;;
2022/09/10 09:17:41;;;;;;;14.9;9.4;;;;;;;16.17;85.95898;939.0776;;;;
2022/09/10 09:20:06;;;;;;;21;14.6;;;;;;;16.11;87.38477;939.1714;;;;
2022/09/10 09:22:33;;;;;;;26.2;17.5;;;;;;;16.21;85.10059;939.2154;;;;
2022/09/10 09:25:01;;;;;;;25.3;16.1;;;;;;;16.27;86.26953;939.149;;;;
2022/09/10 09:27:26;;;;;;;25.5;17.1;;;;;;;16.4;84.35254;939.2578;;;;
2022/09/10 09:29:51;;;;;;;24.8;16.3;;;;;;;16.5;83.75781;939.248;;;;
2022/09/10 09:32:16;;;;;;;28;18.4;;;;;;;16.38;84.74023;939.2234;;;;
2022/09/10 09:34:41;;;;;;;28;19;;;;;;;16.46;84.42188;939.2493;;;;
2022/09/10 09:37:07;;;;;;;26.6;18;;;;;;;16.39;86.06348;939.2217;;;;
2022/09/10 09:39:32;;;;;;;32.8;23.6;;;;;;;16.33;85.4834;939.2665;;;;
2022/09/10 09:42:03;;;;;;;34.4;24.1;;;;;;;16.31;85.67676;939.2258;;;;
2022/09/10 09:44:31;;;;;;;33;23.1;;;;;;;16.42;85.88379;939.2142;;;;
2022/09/10 09:46:59;;;;;;;36.1;25;;;;;;;16.45;86.55859;939.2068;;;;
2022/09/10 09:49:25;;;;;;;32.5;23.5;;;;;;;16.57;85.77441;939.1467;;;;
2022/09/10 09:51:50;;;;;;;35.1;23.9;;;;;;;16.69;83.67871;939.1467;;;;
2022/09/10 09:54:14;;;;;;;34.6;25;;;;;;;16.82;83.10156;939.1139;;;;
2022/09/10 09:56:44;;;;;;;23.1;17.1;;;;;;;16.95;81.68848;939.0647;;;;
2022/09/10 09:59:10;;;;;;;15.3;11.4;;;;;;;16.81;81.51172;939.0606;;;;
2022/09/10 10:01:34;;;;;;;15;10.7;;;;;;;16.85;81.77441;939.0338;;;;
2022/09/10 10:04:00;;;;;;;15.9;9.9;;;;;;;17.1;81.99414;939.0098;;;;
2022/09/10 10:06:25;;;;;;;15.8;10.4;;;;;;;17.31;81.2207;938.9933;;;;
2022/09/10 10:08:51;;;;;;;14.2;10.3;;;;;;;17.49;79.45605;939.043;;;;
2022/09/10 10:11:16;;;;;;;19.7;12.7;;;;;;;17.45;79.93848;939.0541;;;;
2022/09/10 10:13:41;;;;;;;18.4;10.4;;;;;;;17.45;79.19629;939.0251;;;;
2022/09/10 10:16:11;;;;;;;14.8;10.5;;;;;;;17.54;78.82813;939.0817;;;;
2022/09/10 10:18:36;;;;;;;16.7;10.4;;;;;;;17.58;77.97559;939.0851;;;;
2022/09/10 10:21:02;;;;;;;14;9.7;;;;;;;17.32;77.52344;939.0286;;;;
2022/09/10 10:23:27;;;;;;;11.4;9.1;;;;;;;16.65;81.53906;939.0624;;;;
2022/09/10 10:25:53;;;;;;;15.7;10.9;;;;;;;16.41;82.91895;939.1259;;;;
2022/09/10 10:28:18;;;;;;;7.4;4.7;;;;;;;16.66;83.96289;939.0971;;;;
2022/09/10 10:30:46;;;;;;;5.3;3.6;;;;;;;16.5;84.9834;939.0962;;;;
2022/09/10 10:33:11;;;;;;;5.3;3.4;;;;;;;16.61;84.85352;939.0482;;;;
2022/09/10 10:35:37;;;;;;;3.6;2.9;;;;;;;16.25;85.31934;939.0167;;;;
2022/09/10 10:38:02;;;;;;;3.4;2.8;;;;;;;16.19;87.94434;939.0059;;;;
2022/09/10 10:40:30;;;;;;;5.2;3.4;;;;;;;16.25;89.95605;939.0159;;;;
2022/09/10 10:42:55;;;;;;;3;2.3;;;;;;;16.38;87.05664;939.0008;;;;
2022/09/10 10:45:20;;;;;;;4.4;2.4;;;;;;;16.4;86.00684;938.949;;;;
2022/09/10 10:47:47;;;;;;;2.8;2;;;;;;;16.33;84.62793;938.9821;;;;
2022/09/10 10:50:12;;;;;;;4.3;2.5;;;;;;;16.53;85.24512;938.9398;;;;
2022/09/10 10:52:43;;;;;;;4.2;2.5;;;;;;;16.7;83.72656;938.9036;;;;
2022/09/10 10:55:11;;;;;;;2.7;2.5;;;;;;;16.97;82.58301;938.8883;;;;
2022/09/10 10:57:38;;;;;;;4.2;2.7;;;;;;;16.96;81.92188;938.8497;;;;
2022/09/10 11:00:06;;;;;;;2.9;2;;;;;;;17.16;81.29883;938.8422;;;;
2022/09/10 11:02:29;;;;;;;3.1;2.1;;;;;;;17.23;79.95508;938.8842;;;;
2022/09/10 11:04:54;;;;;;;2.9;2.1;;;;;;;17.41;79.62891;938.8549;;;;
2022/09/10 11:07:20;;;;;;;2.4;1.8;;;;;;;16.97;81.64551;938.8689;;;;
2022/09/10 11:09:45;;;;;;;2.4;1.9;;;;;;;16.85;83.02539;938.8947;;;;
2022/09/10 11:12:10;;;;;;;2.5;1.8;;;;;;;17.24;81.08203;938.884;;;;
2022/09/10 11:14:40;;;;;;;1.8;1.4;;;;;;;17.16;79.79004;938.8126;;;;
2022/09/10 11:17:07;;;;;;;2.2;1.3;;;;;;;17.36;77.63574;938.7614;;;;
2022/09/10 11:19:34;;;;;;;2;1.7;;;;;;;17.23;80.30176;938.7659;;;;
2022/09/10 11:21:59;;;;;;;2.1;1.5;;;;;;;16.8;80.96484;938.7294;;;;
2022/09/10 11:24:25;;;;;;;1.8;1.4;;;;;;;16.91;80.94922;938.6785;;;;
2022/09/10 11:26:50;;;;;;;1.7;1.4;;;;;;;17.34;79.98535;938.6434;;;;
2022/09/10 11:29:15;;;;;;;1.5;1.2;;;;;;;17.66;78.72168;938.6661;;;;
2022/09/10 11:31:41;;;;;;;2;1.6;;;;;;;18.26;77.71387;938.6571;;;;
2022/09/10 11:35:17;;;;;;;1.8;1.5;;;;;;;19.45;73.50781;938.6186;;;;
2022/09/10 11:37:42;;;;;;;2;1.8;;;;;;;20.58;66.20605;938.5271;;;;
2022/09/10 11:40:08;;;;;;;4.6;2.9;;;;;;;20.75;62.35254;938.533;;;;
2022/09/10 11:43:09;;;;;;;3.9;3.1;;;;;;;20.56;63.17676;938.4678;;;;
2022/09/10 11:45:35;;;;;;;2.2;1.5;;;;;;;19.98;64.75098;938.4501;;;;
2022/09/10 11:48:00;;;;;;;1.9;1.7;;;;;;;19.97;63.43164;938.4464;;;;
2022/09/10 11:50:29;;;;;;;2;1.7;;;;;;;19.87;65.30664;938.4361;;;;
2022/09/10 11:52:55;;;;;;;1.9;1.6;;;;;;;20.06;63.18848;938.4088;;;;
2022/09/10 11:55:20;;;;;;;2.5;1.8;;;;;;;20.43;62.56445;938.3258;;;;
2022/09/10 11:57:46;;;;;;;2.4;2.1;;;;;;;20;65.44238;938.3205;;;;
2022/09/10 12:00:14;;;;;;;2.7;2;;;;;;;20.12;68.91602;938.3295;;;;
2022/09/10 12:02:37;;;;;;;3;2.3;;;;;;;20.2;65.20508;938.2924;;;;
2022/09/10 12:05:14;;;;;;;3.8;2.7;;;;;;;20.23;61.96387;938.3027;;;;
2022/09/10 12:07:43;;;;;;;3.8;2.7;;;;;;;19.86;65.06055;938.3304;;;;
2022/09/10 12:10:14;;;;;;;3.5;2.7;;;;;;;20.17;64.43945;938.3024;;;;
2022/09/10 12:12:39;;;;;;;2.9;2.4;;;;;;;19.89;63.37305;938.3611;;;;
2022/09/10 12:15:05;;;;;;;4;2.9;;;;;;;20.14;68.20508;938.3605;;;;
2022/09/10 12:17:29;;;;;;;5.6;3.1;;;;;;;20.55;64.25098;938.3727;;;;
2022/09/10 12:19:55;;;;;;;4;2.9;;;;;;;20.94;60.57813;938.3405;;;;
2022/09/10 12:22:20;;;;;;;3.8;2.8;;;;;;;21.48;58.25195;938.2704;;;;
2022/09/10 12:24:45;;;;;;;4.2;3.3;;;;;;;22.34;58.81152;938.4023;;;;
2022/09/10 12:27:10;;;;;;;4;3;;;;;;;22.86;54.80469;938.3269;;;;
2022/09/10 12:29:36;;;;;;;3.5;3;;;;;;;22.12;58.74609;938.3531;;;;
2022/09/10 12:32:01;;;;;;;4;2.7;;;;;;;21.7;58.58496;938.3738;;;;
2022/09/10 12:34:27;;;;;;;4.2;3.2;;;;;;;21.3;57.78418;938.3521;;;;
2022/09/10 12:36:53;;;;;;;3.4;2.9;;;;;;;21.08;58.39844;938.3269;;;;
2022/09/10 12:39:20;;;;;;;4.2;3.2;;;;;;;20.57;61.63672;938.2985;;;;
2022/09/10 12:41:45;;;;;;;4.6;3.1;;;;;;;20.73;59.60254;938.2511;;;;
2022/09/10 12:44:11;;;;;;;4;2.6;;;;;;;21.01;58.18945;938.2217;;;;
2022/09/10 12:46:43;;;;;;;4;3.2;;;;;;;21.02;60.77539;938.2338;;;;
2022/09/10 12:49:11;;;;;;;3.8;3;;;;;;;20.64;63.80859;938.1437;;;;
2022/09/10 12:51:41;;;;;;;2.7;2.3;;;;;;;20.41;65.52734;938.1392;;;;
2022/09/10 12:54:07;;;;;;;3.4;2.7;;;;;;;20.12;69.16113;938.0942;;;;
2022/09/10 12:56:32;;;;;;;2.8;2.4;;;;;;;20.32;63.62109;938.0396;;;;
2022/09/10 12:58:57;;;;;;;2.6;2.2;;;;;;;20.84;65.97754;937.8563;;;;
2022/09/10 13:01:24;;;;;;;4;2.9;;;;;;;23.94;55.34961;937.9398;;;;
2022/09/10 13:03:50;;;;;;;2.7;2.3;;;;;;;26.09;49.54883;937.8635;;;;
2022/09/10 13:06:14;;;;;;;4.1;2.8;;;;;;;28.25;42.44238;937.8261;;;;
2022/09/10 13:08:42;;;;;;;2.6;2.2;;;;;;;28.95;40.51953;937.8721;;;;
2022/09/10 13:11:07;;;;;;;3.6;2.6;;;;;;;29.47;39.43457;937.8182;;;;
2022/09/10 13:13:32;;;;;;;4.3;2.9;;;;;;;28.65;37.9834;937.7586;;;;
2022/09/10 13:15:59;;;;;;;2.8;2.5;;;;;;;26.46;44.07227;937.9238;;;;
2022/09/10 13:18:24;;;;;;;2.9;2.4;;;;;;;24.88;45.47363;937.8147;;;;
2022/09/10 13:20:51;;;;;;;3.2;2.1;;;;;;;24.28;46.73242;937.7464;;;;
2022/09/10 13:23:16;;;;;;;1.6;1.5;;;;;;;23.43;46.44434;937.7031;;;;
2022/09/10 13:25:43;;;;;;;1.9;1.6;;;;;;;22.1;50.37305;937.8086;;;;
2022/09/10 13:28:08;;;;;;;2.8;1.5;;;;;;;21.59;47.43457;937.7489;;;;
2022/09/10 13:30:33;;;;;;;1.2;0.9;;;;;;;20.68;49.78027;937.733;;;;
2022/09/10 13:33:01;;;;;;;0.6;0.2;;;;;;;20.29;51.44043;937.7332;;;;
2022/09/10 13:35:26;;;;;;;1;0.5;;;;;;;20.28;51.84863;937.6922;;;;
2022/09/10 13:37:52;;;;;;;0.2;0.2;;;;;;;20.71;50.30957;937.7645;;;;
2022/09/10 13:40:20;;;;;;;1.3;0.5;;;;;;;20.8;46.26367;937.5974;;;;
2022/09/10 13:42:49;;;;;;;0.6;0.4;;;;;;;21.47;48.94238;937.6219;;;;
2022/09/10 13:45:16;;;;;;;2.1;0.7;;;;;;;22.45;47.67969;937.6139;;;;
2022/09/10 13:47:45;;;;;;;0.2;0.2;;;;;;;22.66;46.88086;937.585;;;;
2022/09/10 13:50:12;;;;;;;0.5;0.3;;;;;;;22.24;45.39355;937.5583;;;;
2022/09/10 13:52:36;;;;;;;0.3;0.3;;;;;;;21.91;46.14551;937.5341;;;;
2022/09/10 13:55:01;;;;;;;0.4;0.3;;;;;;;21.54;47.94531;937.4906;;;;
2022/09/10 13:57:27;;;;;;;0.9;0.8;;;;;;;21.58;47.64551;937.4163;;;;
2022/09/10 13:59:56;;;;;;;0.8;0.2;;;;;;;21.13;46.89355;937.4419;;;;
2022/09/10 14:02:23;;;;;;;0.5;0.3;;;;;;;21.01;46.58789;937.4261;;;;
2022/09/10 14:04:50;;;;;;;1.2;0.9;;;;;;;21.24;46.48535;937.3998;;;;
2022/09/10 14:07:14;;;;;;;0.2;0.2;;;;;;;21.23;46.40234;937.3933;;;;
2022/09/10 14:09:44;;;;;;;0.9;0.5;;;;;;;21.13;50.0293;937.4247;;;;
2022/09/10 14:12:08;;;;;;;0.5;0.3;;;;;;;21.14;46.42676;937.3712;;;;
2022/09/10 14:14:36;;;;;;;0.9;0.4;;;;;;;20.83;47.87988;937.3523;;;;
2022/09/10 14:17:01;;;;;;;0.9;0.5;;;;;;;20.46;49.92969;937.3585;;;;
2022/09/10 14:19:26;;;;;;;0.3;0.2;;;;;;;20.55;48.35156;937.2238;;;;
2022/09/10 14:21:52;;;;;;;0.5;0.3;;;;;;;20.61;47.44727;937.2679;;;;
2022/09/10 14:24:17;;;;;;;0.7;0.5;;;;;;;20.49;47.48145;937.2885;;;;
2022/09/10 14:26:44;;;;;;;0.6;0.4;;;;;;;20.01;47.83691;937.3095;;;;
2022/09/10 14:29:09;;;;;;;0.6;0.4;;;;;;;20.07;48.06445;937.293;;;;
2022/09/10 14:31:35;;;;;;;0.8;0.6;;;;;;;20.18;47.86816;937.2217;;;;
2022/09/10 14:34:00;;;;;;;0.5;0.5;;;;;;;20.24;49.80078;937.2099;;;;
2022/09/10 14:36:26;;;;;;;1.3;0.5;;;;;;;20.27;50.81934;937.2178;;;;
2022/09/10 14:38:50;;;;;;;0.7;0.3;;;;;;;20.2;46.99512;937.0981;;;;
2022/09/10 14:41:15;;;;;;;1.4;0.6;;;;;;;20.15;52.14648;937.2195;;;;
2022/09/10 14:43:41;;;;;;;0.6;0.4;;;;;;;20.34;53.75879;937.2731;;;;
2022/09/10 14:46:09;;;;;;;1.6;0.5;;;;;;;20.36;54.74219;937.4026;;;;
2022/09/10 14:48:37;;;;;;;0.6;0.6;;;;;;;20.19;56.34375;937.4517;;;;
2022/09/10 14:51:02;;;;;;;0.9;0.6;;;;;;;20.41;57.1543;937.4459;;;;
2022/09/10 14:53:26;;;;;;;3.4;0.9;;;;;;;20.45;57.83691;937.4693;;;;
2022/09/10 14:55:51;;;;;;;0.9;0.6;;;;;;;20.45;58.39551;937.3474;;;;
2022/09/10 14:58:17;;;;;;;0.8;0.5;;;;;;;20.25;58.10059;937.3471;;;;
2022/09/10 15:00:44;;;;;;;1.9;0.7;;;;;;;20.23;58.33301;937.3484;;;;
2022/09/10 15:03:12;;;;;;;1.4;0.7;;;;;;;20.13;59.38086;937.3624;;;;
2022/09/10 15:05:38;;;;;;;0.8;0.6;;;;;;;20.08;60.00488;937.3574;;;;
2022/09/10 15:08:02;;;;;;;0.7;0.7;;;;;;;19.98;60.49316;937.2863;;;;
2022/09/10 15:10:33;;;;;;;1.3;1;;;;;;;19.68;61.62988;937.3558;;;;
2022/09/10 15:13:06;;;;;;;1.1;0.7;;;;;;;19.51;62.53809;937.4095;;;;
2022/09/10 15:15:32;;;;;;;2.3;0.7;;;;;;;19.28;62.05176;937.3337;;;;
2022/09/10 15:18:04;;;;;;;0.6;0.6;;;;;;;19.46;62.27539;937.3286;;;;
2022/09/10 15:20:30;;;;;;;0.8;0.6;;;;;;;19.18;62.63086;937.3506;;;;
2022/09/10 15:22:54;;;;;;;1;0.6;;;;;;;19.15;62.42871;937.2157;;;;
2022/09/10 15:25:21;;;;;;;1.8;1;;;;;;;19.1;63.93457;937.3236;;;;
2022/09/10 15:27:49;;;;;;;0.9;0.6;;;;;;;18.97;64.17285;937.3215;;;;
2022/09/10 15:30:16;;;;;;;0.9;0.6;;;;;;;18.84;63.51367;937.2738;;;;
2022/09/10 15:33:01;;;;;;;2.2;1;;;;;;;18.91;64.96777;937.3077;;;;
2022/09/10 15:35:25;;;;;;;2;0.9;;;;;;;18.92;65.86426;937.3333;;;;
2022/09/10 15:37:53;;;;;;;1.9;0.8;;;;;;;19.07;65.39941;937.3323;;;;
2022/09/10 15:40:18;;;;;;;1.8;1.2;;;;;;;18.84;63.43262;937.3279;;;;
2022/09/10 15:42:45;;;;;;;0.8;0.7;;;;;;;18.75;65.24609;937.3113;;;;
2022/09/10 15:45:12;;;;;;;1.2;1.1;;;;;;;18.9;65.7793;937.2838;;;;
2022/09/10 15:48:03;;;;;;;1.2;0.8;;;;;;;19.04;63.86914;937.308;;;;
2022/09/10 15:50:34;;;;;;;1.5;0.7;;;;;;;18.61;65.42285;937.3752;;;;
2022/09/10 15:52:59;;;;;;;1.2;0.7;;;;;;;18.53;66.56348;937.2947;;;;
2022/09/10 15:55:29;;;;;;;0.5;0.5;;;;;;;18.24;66.76367;937.3128;;;;
2022/09/10 15:57:53;;;;;;;0.6;0.6;;;;;;;18.5;66.58203;937.3099;;;;
2022/09/10 16:00:21;;;;;;;0.9;0.6;;;;;;;18.48;66.99707;937.3176;;;;
2022/09/10 16:02:47;;;;;;;1.1;0.5;;;;;;;18.46;65.98145;937.3972;;;;
2022/09/10 16:05:16;;;;;;;1.1;0.8;;;;;;;18.55;66.46289;937.4482;;;;